Time;durP1;ratioP1;P1;durP2;ratioP2;P2;SDS_P1;SDS_P2;PMS_P1;PMS_P2;Temp;Humidity;BMP_temperature;BMP_pressure;BME280_temperature;BME280_humidity;BME280_pressure;Samples;Min_cycle;Max_cycle;Signal;HPM_P1;HPM_P2
2021/10/16 00:00:21;;;;;;;3.60;2.03;;;;;;;16.37;43.78;94987.63;5089652;28;20031;-73
2021/10/16 00:02:47;;;;;;;4.82;2.25;;;;;;;16.37;43.84;94990.34;5088800;28;20241;-72
2021/10/16 00:05:13;;;;;;;4.22;2.10;;;;;;;16.36;43.79;94988.69;5088160;28;20035;-72
2021/10/16 00:07:38;;;;;;;3.92;2.00;;;;;;;16.37;43.57;94991.19;5087514;28;20030;-72
2021/10/16 00:10:04;;;;;;;4.35;2.05;;;;;;;16.36;43.86;94989.53;5089213;28;20027;-72
2021/10/16 00:12:29;;;;;;;4.68;2.30;;;;;;;16.36;43.83;94984.13;5087697;28;20027;-72
2021/10/16 00:14:55;;;;;;;4.93;2.30;;;;;;;16.37;43.86;94974.09;5087433;28;20028;-72
2021/10/16 00:17:20;;;;;;;3.65;2.00;;;;;;;16.37;43.74;94968.69;5088031;28;20032;-73
2021/10/16 00:19:46;;;;;;;4.43;1.92;;;;;;;16.37;43.72;94969.53;5086914;28;20024;-72
2021/10/16 00:22:11;;;;;;;3.47;2.00;;;;;;;16.36;43.92;94976.00;5088010;28;20031;-72
2021/10/16 00:24:37;;;;;;;3.60;1.98;;;;;;;16.36;43.92;94976.00;5087084;28;20024;-72
2021/10/16 00:27:03;;;;;;;3.58;2.03;;;;;;;16.35;43.93;94971.63;5087682;28;20443;-73
2021/10/16 00:29:28;;;;;;;3.63;2.00;;;;;;;16.36;44.00;94973.28;5070081;28;20032;-72
2021/10/16 00:31:54;;;;;;;3.83;2.20;;;;;;;16.36;43.91;94967.06;5088505;28;20494;-72
2021/10/16 00:34:19;;;;;;;4.55;2.15;;;;;;;16.35;43.97;94966.22;5087580;28;20028;-72
2021/10/16 00:36:45;;;;;;;2.97;1.77;;;;;;;16.35;44.04;94971.63;5087839;28;20426;-72
2021/10/16 00:39:10;;;;;;;4.30;2.35;;;;;;;16.35;43.94;94974.34;5089174;28;20501;-73
2021/10/16 00:41:35;;;;;;;3.83;1.98;;;;;;;16.34;44.02;94964.56;5086482;28;20474;-73
2021/10/16 00:44:24;;;;;;;3.55;2.17;;;;;;;16.33;44.15;94954.78;5088655;28;20023;-73
2021/10/16 00:46:51;;;;;;;4.75;2.10;;;;;;;16.34;43.88;94951.03;5070401;28;20028;-72
2021/10/16 00:49:16;;;;;;;4.68;2.20;;;;;;;16.36;44.05;94958.94;5086922;28;20024;-73
2021/10/16 00:51:42;;;;;;;4.30;2.22;;;;;;;16.36;44.05;94957.06;5088600;28;20028;-72
2021/10/16 00:54:08;;;;;;;4.03;2.20;;;;;;;16.36;44.11;94954.34;5086522;28;20059;-73
2021/10/16 00:56:41;;;;;;;3.95;2.00;;;;;;;16.35;44.06;94955.38;5088551;28;20032;-73
2021/10/16 00:59:06;;;;;;;4.80;2.20;;;;;;;16.35;44.05;94949.97;5086472;28;20030;-73
2021/10/16 01:01:32;;;;;;;4.65;2.30;;;;;;;16.36;44.10;94950.81;5086676;28;20024;-72
2021/10/16 01:03:58;;;;;;;4.50;2.35;;;;;;;16.35;44.15;94952.69;5086784;28;20047;-73
2021/10/16 01:06:24;;;;;;;3.33;1.75;;;;;;;16.35;44.11;94966.22;5086795;28;20052;-73
2021/10/16 01:08:51;;;;;;;4.97;2.00;;;;;;;16.36;44.04;94951.66;5069999;28;20028;-73
2021/10/16 01:11:17;;;;;;;4.00;2.10;;;;;;;16.36;43.83;94951.66;5086333;28;20028;-74
2021/10/16 01:13:42;;;;;;;3.58;2.00;;;;;;;16.37;44.09;94949.75;5088091;28;20036;-72
2021/10/16 01:16:08;;;;;;;3.95;2.17;;;;;;;16.38;44.05;94959.53;5069338;28;20016;-72
2021/10/16 01:18:34;;;;;;;5.03;2.10;;;;;;;16.38;44.09;94946.00;5086754;28;20036;-72
2021/10/16 01:21:05;;;;;;;4.18;2.22;;;;;;;16.37;44.07;94947.03;5068892;28;20044;-72
2021/10/16 01:23:33;;;;;;;4.38;1.83;;;;;;;16.37;44.03;94950.59;5070100;28;20035;-72
2021/10/16 01:25:58;;;;;;;3.33;1.92;;;;;;;16.36;44.05;94956.22;5069419;28;20028;-73
2021/10/16 01:28:24;;;;;;;5.07;2.22;;;;;;;16.36;44.07;94957.06;5069112;28;20035;-72
2021/10/16 01:30:49;;;;;;;3.53;1.75;;;;;;;16.37;44.18;94960.56;5085787;28;20020;-72
2021/10/16 01:33:15;;;;;;;3.75;1.75;;;;;;;16.36;44.25;94956.22;5085564;28;20059;-72
2021/10/16 01:35:40;;;;;;;2.80;1.60;;;;;;;16.36;44.17;94959.78;5087441;28;20035;-72
2021/10/16 01:38:05;;;;;;;3.28;1.80;;;;;;;16.37;44.09;94952.44;5086994;28;20020;-72
2021/10/16 01:40:31;;;;;;;4.45;1.98;;;;;;;16.35;44.14;94955.38;5086138;28;20031;-72
2021/10/16 01:42:56;;;;;;;3.70;1.95;;;;;;;16.36;44.05;94959.78;5085640;28;20051;-73
2021/10/16 01:45:22;;;;;;;3.92;1.85;;;;;;;16.36;44.24;94967.06;5085867;28;20039;-73
2021/10/16 01:47:47;;;;;;;3.28;1.80;;;;;;;16.36;44.27;94967.06;5085989;28;20509;-73
2021/10/16 01:50:13;;;;;;;3.28;1.80;;;;;;;16.35;44.11;94966.22;5086837;28;20050;-73
2021/10/16 01:52:38;;;;;;;4.50;1.60;;;;;;;16.35;44.15;94966.22;5086473;28;20051;-73
2021/10/16 01:55:04;;;;;;;4.05;1.50;;;;;;;16.34;44.30;94966.44;5085203;28;20024;-73
2021/10/16 01:57:29;;;;;;;3.67;1.80;;;;;;;16.34;44.64;94959.16;5069272;28;20031;-73
2021/10/16 01:59:55;;;;;;;2.97;1.65;;;;;;;16.34;44.19;94959.16;5068155;28;20020;-73
2021/10/16 02:02:20;;;;;;;3.33;1.70;;;;;;;16.35;44.13;94959.97;5085683;28;20024;-73
2021/10/16 02:04:45;;;;;;;3.25;1.80;;;;;;;16.34;44.16;94947.50;5068756;28;20027;-73
2021/10/16 02:07:11;;;;;;;3.17;1.42;;;;;;;16.34;44.31;94953.75;5068380;28;20077;-73
2021/10/16 02:09:36;;;;;;;2.75;1.48;;;;;;;16.34;44.29;94961.84;5086638;28;20028;-73
2021/10/16 02:12:02;;;;;;;2.85;1.60;;;;;;;16.33;44.32;94962.91;5068256;28;20024;-73
2021/10/16 02:14:27;;;;;;;2.50;1.27;;;;;;;16.35;44.28;94968.91;5086000;28;20035;-74
2021/10/16 02:16:53;;;;;;;2.83;1.30;;;;;;;16.35;44.25;94960.81;5084997;28;20027;-73
2021/10/16 02:19:18;;;;;;;3.53;1.60;;;;;;;16.35;44.39;94951.84;5086968;28;20029;-73
2021/10/16 02:21:43;;;;;;;2.58;1.48;;;;;;;16.33;44.39;94956.69;5068138;28;20059;-73
2021/10/16 02:24:09;;;;;;;2.80;1.42;;;;;;;16.35;44.32;94963.50;5051707;28;20043;-72
2021/10/16 02:26:34;;;;;;;3.85;1.40;;;;;;;16.33;44.35;94957.47;5085763;28;20020;-72
2021/10/16 02:29:00;;;;;;;2.25;1.30;;;;;;;16.34;44.36;94958.31;5084712;28;20024;-73
2021/10/16 02:31:25;;;;;;;2.63;1.50;;;;;;;16.33;44.42;94967.50;5068752;28;20024;-73
2021/10/16 02:33:51;;;;;;;2.55;1.15;;;;;;;16.34;44.22;94958.31;5084548;28;20032;-73
2021/10/16 02:36:16;;;;;;;3.05;1.50;;;;;;;16.33;44.47;94952.06;5085334;28;20042;-72
2021/10/16 02:38:42;;;;;;;2.50;1.10;;;;;;;16.34;44.25;94948.34;5068121;28;20249;-73
2021/10/16 02:41:07;;;;;;;2.05;1.00;;;;;;;16.34;44.23;94955.63;5085036;28;20074;-73
2021/10/16 02:43:33;;;;;;;2.67;1.05;;;;;;;16.33;44.37;94960.19;5084023;28;20073;-72
2021/10/16 02:45:58;;;;;;;2.08;1.10;;;;;;;16.34;44.19;94964.56;5084726;28;20085;-72
2021/10/16 02:48:24;;;;;;;3.63;1.33;;;;;;;16.33;44.22;94957.47;5068517;28;20035;-73
2021/10/16 02:50:49;;;;;;;2.05;1.02;;;;;;;16.33;44.44;94960.19;5067715;28;20027;-73
2021/10/16 02:53:14;;;;;;;2.13;1.20;;;;;;;16.32;44.41;94950.44;5068249;28;20034;-73
2021/10/16 02:55:40;;;;;;;2.20;0.93;;;;;;;16.33;44.34;94960.19;5085755;28;20024;-73
2021/10/16 02:58:05;;;;;;;2.42;1.02;;;;;;;16.33;44.17;94964.78;5084963;28;20045;-73
2021/10/16 03:00:31;;;;;;;1.58;0.80;;;;;;;16.34;44.23;94966.44;5084664;28;20426;-73
2021/10/16 03:02:56;;;;;;;2.08;0.90;;;;;;;16.34;43.92;94971.84;5086299;28;20518;-73
2021/10/16 03:05:22;;;;;;;2.55;1.20;;;;;;;16.34;44.42;94975.38;5084521;28;20032;-73
2021/10/16 03:07:47;;;;;;;2.83;1.20;;;;;;;16.34;44.35;94980.81;5084918;28;20069;-73
2021/10/16 03:10:12;;;;;;;4.05;0.90;;;;;;;16.34;44.47;94974.56;5085206;28;20017;-73
2021/10/16 03:12:38;;;;;;;1.58;0.80;;;;;;;16.34;44.43;94974.56;5067437;28;20398;-74
2021/10/16 03:15:04;;;;;;;1.75;0.90;;;;;;;16.34;44.43;94969.13;5086660;28;20475;-73
2021/10/16 03:17:29;;;;;;;2.22;0.98;;;;;;;16.33;44.32;94973.72;5067220;28;20028;-73
2021/10/16 03:19:54;;;;;;;1.90;1.02;;;;;;;16.34;44.52;94969.97;5084708;28;20040;-74
2021/10/16 03:22:20;;;;;;;2.85;1.00;;;;;;;16.33;44.54;94968.31;5067211;28;20052;-74
2021/10/16 03:24:45;;;;;;;1.70;0.82;;;;;;;16.33;44.50;94968.31;5086033;28;20074;-74
2021/10/16 03:27:11;;;;;;;2.67;0.90;;;;;;;16.32;44.38;94966.66;5084599;28;20027;-72
2021/10/16 03:29:36;;;;;;;1.52;0.90;;;;;;;16.34;44.38;94967.28;5067459;28;20035;-73
2021/10/16 03:32:02;;;;;;;2.53;0.80;;;;;;;16.34;44.40;94961.84;5068324;28;20027;-73
2021/10/16 03:34:27;;;;;;;2.25;1.10;;;;;;;16.33;44.41;94965.59;5066977;28;20028;-73
2021/10/16 03:36:54;;;;;;;1.88;0.90;;;;;;;16.33;44.48;94962.09;5068051;28;20444;-73
2021/10/16 03:39:19;;;;;;;1.88;0.88;;;;;;;16.33;44.49;94962.91;5067226;28;20020;-73
2021/10/16 03:41:44;;;;;;;1.90;0.88;;;;;;;16.34;44.48;94963.72;5067903;28;20070;-73
2021/10/16 03:44:10;;;;;;;2.25;0.98;;;;;;;16.33;44.47;94962.91;5084324;28;20024;-73
2021/10/16 03:46:35;;;;;;;1.55;0.70;;;;;;;16.34;44.29;94964.56;5067238;28;20024;-73
2021/10/16 03:49:01;;;;;;;1.70;0.85;;;;;;;16.35;44.42;94962.66;5051362;28;20640;-73
2021/10/16 03:51:26;;;;;;;1.90;0.70;;;;;;;16.35;44.37;94960.81;5084983;28;20031;-72
2021/10/16 03:53:51;;;;;;;1.65;0.70;;;;;;;16.35;44.42;94963.50;5087083;28;20082;-73
2021/10/16 03:56:17;;;;;;;1.92;0.80;;;;;;;16.36;44.37;94965.19;5070607;28;20070;-73
2021/10/16 03:58:42;;;;;;;1.83;0.80;;;;;;;16.35;44.45;94965.38;5071438;28;20036;-71
2021/10/16 04:01:08;;;;;;;2.20;0.90;;;;;;;16.33;44.47;94959.38;5089074;28;20016;-73
2021/10/16 04:03:35;;;;;;;1.98;0.90;;;;;;;16.32;44.48;94966.66;5070939;28;20506;-73
2021/10/16 04:06:00;;;;;;;1.60;0.70;;;;;;;16.33;44.40;94962.91;5071381;28;20020;-72
2021/10/16 04:08:25;;;;;;;1.75;0.77;;;;;;;16.33;44.60;94962.91;5087389;28;20032;-73
2021/10/16 04:10:51;;;;;;;1.95;0.90;;;;;;;16.34;44.43;94958.31;5054891;28;20024;-74
2021/10/16 04:13:16;;;;;;;1.67;0.68;;;;;;;16.34;44.52;94961.84;5070473;28;20053;-76
2021/10/16 04:15:42;;;;;;;1.33;0.70;;;;;;;16.33;44.36;94956.69;5071036;28;20020;-74
2021/10/16 04:18:07;;;;;;;1.95;0.80;;;;;;;16.33;44.49;94949.38;5053576;28;20039;-73
2021/10/16 04:20:33;;;;;;;1.40;0.70;;;;;;;16.35;44.60;94957.25;5087462;28;20521;-72
2021/10/16 04:22:58;;;;;;;1.38;0.70;;;;;;;16.34;44.50;94958.31;5087458;28;20058;-74
2021/10/16 04:25:24;;;;;;;1.83;0.70;;;;;;;16.34;44.43;94951.03;5087262;28;20484;-72
2021/10/16 04:27:49;;;;;;;1.80;0.80;;;;;;;16.34;44.50;94956.44;5054305;28;20024;-73
2021/10/16 04:30:15;;;;;;;1.10;0.60;;;;;;;16.34;44.40;94952.91;5070215;28;20059;-73
2021/10/16 04:32:40;;;;;;;1.60;0.70;;;;;;;16.33;44.44;94962.91;5087742;28;20024;-72
2021/10/16 04:35:07;;;;;;;1.00;0.60;;;;;;;16.32;44.44;94958.53;5086876;28;20456;-73
2021/10/16 04:37:33;;;;;;;2.72;0.70;;;;;;;16.33;44.60;94959.38;5070357;28;20426;-74
2021/10/16 04:39:59;;;;;;;1.65;0.68;;;;;;;16.33;44.51;94957.47;5087063;28;20023;-72
2021/10/16 04:42:24;;;;;;;1.67;0.70;;;;;;;16.33;44.44;94960.19;5087328;28;20023;-73
2021/10/16 04:44:50;;;;;;;1.65;0.70;;;;;;;16.33;44.48;94960.19;5053504;28;20020;-72
2021/10/16 04:47:15;;;;;;;1.25;0.57;;;;;;;16.34;44.49;94956.44;5086913;28;20452;-74
2021/10/16 04:49:41;;;;;;;1.10;0.60;;;;;;;16.33;44.36;94962.91;5070472;28;20039;-73
2021/10/16 04:52:07;;;;;;;1.45;0.68;;;;;;;16.33;44.53;94957.47;5069822;28;20466;-72
2021/10/16 04:54:32;;;;;;;1.58;0.70;;;;;;;16.33;44.49;94962.09;5053722;28;20032;-72
2021/10/16 04:56:57;;;;;;;1.27;0.60;;;;;;;16.34;44.55;94967.28;5069757;28;20028;-74
2021/10/16 04:59:24;;;;;;;1.77;0.65;;;;;;;16.33;44.58;94971.00;5070223;28;20414;-73
2021/10/16 05:01:50;;;;;;;2.38;0.60;;;;;;;16.32;44.55;94974.78;5069771;28;20059;-73
2021/10/16 05:04:15;;;;;;;1.70;0.70;;;;;;;16.35;44.58;94979.75;5070227;28;20020;-73
2021/10/16 05:06:41;;;;;;;1.05;0.52;;;;;;;16.33;44.54;94983.75;5087174;28;20081;-74
2021/10/16 05:09:06;;;;;;;1.67;0.80;;;;;;;16.34;44.55;94986.22;5069409;28;20026;-74
2021/10/16 05:11:32;;;;;;;1.38;0.60;;;;;;;16.33;44.54;94989.94;5087044;28;20020;-74
2021/10/16 05:13:57;;;;;;;1.10;0.60;;;;;;;16.34;44.62;94997.03;5052365;28;20028;-73
2021/10/16 05:16:23;;;;;;;1.30;0.60;;;;;;;16.34;44.53;94988.91;5088397;28;20020;-72
2021/10/16 05:18:48;;;;;;;1.73;0.75;;;;;;;16.34;44.62;94997.03;5069066;28;20513;-73
2021/10/16 05:21:13;;;;;;;1.45;0.65;;;;;;;16.33;44.71;94999.97;5086181;28;20036;-73
2021/10/16 05:23:39;;;;;;;1.95;0.63;;;;;;;16.34;44.55;95002.44;5087570;28;20036;-73
2021/10/16 05:26:04;;;;;;;1.52;0.70;;;;;;;16.35;44.42;95009.50;5085899;28;20066;-74
2021/10/16 05:28:30;;;;;;;1.08;0.60;;;;;;;16.35;44.46;95012.22;5103744;28;20032;-73
2021/10/16 05:30:55;;;;;;;1.20;0.60;;;;;;;16.34;44.62;95012.44;5068640;28;20047;-73
2021/10/16 05:33:21;;;;;;;1.15;0.60;;;;;;;16.35;44.62;95016.78;5069678;28;20066;-73
2021/10/16 05:35:46;;;;;;;1.45;0.70;;;;;;;16.34;44.73;95015.97;5068603;28;20024;-73
2021/10/16 05:38:12;;;;;;;1.85;0.75;;;;;;;16.33;44.58;95025.13;5086407;28;20035;-73
2021/10/16 05:40:37;;;;;;;0.95;0.50;;;;;;;16.34;44.71;95018.69;5052347;28;20107;-73
2021/10/16 05:43:03;;;;;;;1.30;0.52;;;;;;;16.34;44.90;95017.84;5052129;28;20020;-72
2021/10/16 05:45:28;;;;;;;2.03;0.65;;;;;;;16.35;44.53;95025.75;5069362;28;20078;-73
2021/10/16 05:47:53;;;;;;;1.13;0.50;;;;;;;16.35;44.60;95031.16;5068286;28;20563;-73
2021/10/16 05:50:19;;;;;;;1.10;0.52;;;;;;;16.35;44.43;95028.44;5103170;28;20073;-73
2021/10/16 05:52:44;;;;;;;1.52;0.65;;;;;;;16.34;44.59;95040.34;5085183;28;20498;-72
2021/10/16 05:55:10;;;;;;;1.33;0.70;;;;;;;16.32;44.69;95042.44;5085838;28;20028;-73
2021/10/16 05:57:35;;;;;;;1.40;0.63;;;;;;;16.34;44.83;95040.34;5102476;28;20031;-73
2021/10/16 06:00:01;;;;;;;1.90;0.75;;;;;;;16.36;44.74;95050.94;5085656;28;20077;-73
2021/10/16 06:02:26;;;;;;;1.20;0.50;;;;;;;16.34;44.77;95051.16;5086920;28;20058;-72
2021/10/16 06:04:52;;;;;;;1.10;0.50;;;;;;;16.35;44.75;95051.97;5068276;28;20047;-72
2021/10/16 06:07:17;;;;;;;1.88;0.60;;;;;;;16.35;44.75;95057.38;5085960;28;20031;-72
2021/10/16 06:09:42;;;;;;;2.50;0.60;;;;;;;16.35;44.76;95058.22;5084976;28;20027;-73
2021/10/16 06:12:08;;;;;;;1.17;0.50;;;;;;;16.35;44.63;95060.94;5068910;28;20024;-73
2021/10/16 06:14:33;;;;;;;1.33;0.60;;;;;;;16.36;44.66;95059.91;5068201;28;20430;-73
2021/10/16 06:16:59;;;;;;;1.50;0.60;;;;;;;16.36;44.71;95059.91;5102061;28;20401;-72
2021/10/16 06:19:24;;;;;;;1.90;0.60;;;;;;;16.37;44.71;95066.94;5086555;28;20383;-73
2021/10/16 06:21:50;;;;;;;1.08;0.60;;;;;;;16.38;44.74;95074.00;5086986;28;20432;-73
2021/10/16 06:24:15;;;;;;;1.92;0.60;;;;;;;16.37;44.81;95075.06;5086637;28;20032;-73
2021/10/16 06:26:40;;;;;;;1.48;0.60;;;;;;;16.37;44.86;95072.38;5067940;28;20101;-72
2021/10/16 06:29:06;;;;;;;1.50;0.70;;;;;;;16.38;44.82;95079.41;5085551;28;20069;-72
2021/10/16 06:31:31;;;;;;;2.03;0.70;;;;;;;16.38;44.77;95068.59;5085949;28;20666;-73
2021/10/16 06:33:57;;;;;;;1.38;0.60;;;;;;;16.39;44.77;95070.28;5085602;28;20028;-73
2021/10/16 06:36:22;;;;;;;1.73;0.70;;;;;;;16.41;44.80;95072.75;5085896;28;20410;-73
2021/10/16 06:38:48;;;;;;;1.50;0.60;;;;;;;16.41;44.78;95078.16;5068685;28;20028;-74
2021/10/16 06:41:13;;;;;;;2.20;0.70;;;;;;;16.42;44.75;95075.25;5084587;28;20016;-74
2021/10/16 06:43:38;;;;;;;1.92;0.63;;;;;;;16.42;44.79;95075.25;5084971;28;20028;-73
2021/10/16 06:46:04;;;;;;;1.50;0.80;;;;;;;16.43;44.85;95082.28;5068355;28;20032;-73
2021/10/16 06:48:29;;;;;;;1.42;0.60;;;;;;;16.44;45.02;95089.34;5084593;28;20479;-73
2021/10/16 06:50:55;;;;;;;1.55;0.65;;;;;;;16.47;44.74;95092.66;5086937;28;20031;-72
2021/10/16 06:53:20;;;;;;;2.28;0.80;;;;;;;16.46;44.77;95086.44;5085571;28;20024;-73
2021/10/16 06:55:46;;;;;;;1.20;0.60;;;;;;;16.48;44.82;95094.31;5086671;28;20024;-73
2021/10/16 06:58:11;;;;;;;1.30;0.68;;;;;;;16.48;44.79;95088.91;5085631;28;20012;-73
2021/10/16 07:00:37;;;;;;;1.30;0.60;;;;;;;16.50;44.72;95093.06;5085305;28;20024;-73
2021/10/16 07:03:03;;;;;;;1.50;0.70;;;;;;;16.50;44.76;95097.63;5084723;28;20055;-74
2021/10/16 07:05:29;;;;;;;1.52;0.73;;;;;;;16.51;44.67;95094.72;5067709;28;20404;-72
2021/10/16 07:07:54;;;;;;;1.50;0.70;;;;;;;16.52;44.80;95109.09;5085213;28;20035;-73
2021/10/16 07:10:20;;;;;;;1.40;0.60;;;;;;;16.51;44.65;95099.28;5083865;28;20093;-72
2021/10/16 07:12:45;;;;;;;2.30;0.85;;;;;;;16.52;44.81;95114.50;5085171;28;20024;-73
2021/10/16 07:15:11;;;;;;;1.70;0.80;;;;;;;16.53;44.98;95116.13;5085273;28;20024;-74
2021/10/16 07:17:36;;;;;;;1.80;0.90;;;;;;;16.51;44.58;95112.81;5086071;28;20429;-73
2021/10/16 07:20:03;;;;;;;2.38;0.90;;;;;;;16.51;44.66;95110.94;5067854;28;20491;-72
2021/10/16 07:22:28;;;;;;;2.53;0.90;;;;;;;16.51;44.72;95120.94;5067291;28;20032;-73
2021/10/16 07:24:54;;;;;;;1.40;0.70;;;;;;;16.53;44.78;95121.56;5085049;28;20032;-73
2021/10/16 07:27:19;;;;;;;1.52;0.80;;;;;;;16.52;44.80;95117.19;5084119;28;20422;-72
2021/10/16 07:29:45;;;;;;;1.75;0.75;;;;;;;16.51;44.81;95118.22;5070669;28;20550;-73
2021/10/16 07:32:10;;;;;;;1.95;0.90;;;;;;;16.51;44.83;95126.34;5071367;28;20028;-71
2021/10/16 07:34:36;;;;;;;1.63;0.75;;;;;;;16.50;44.81;95125.53;5088590;28;20036;-73
2021/10/16 07:37:01;;;;;;;2.10;1.00;;;;;;;16.50;44.75;95120.13;5054336;28;20032;-73
2021/10/16 07:39:27;;;;;;;1.30;0.70;;;;;;;16.50;44.86;95132.81;5088518;28;20024;-72
2021/10/16 07:41:53;;;;;;;1.45;0.70;;;;;;;16.50;44.92;95130.13;5089536;28;20081;-76
2021/10/16 07:44:19;;;;;;;1.55;0.70;;;;;;;16.50;45.00;95133.66;5089287;28;20429;-72
2021/10/16 07:46:44;;;;;;;1.30;0.63;;;;;;;16.51;45.04;95139.88;5088857;28;20315;-72
2021/10/16 07:49:10;;;;;;;1.60;0.80;;;;;;;16.49;45.05;95131.19;5087701;28;20031;-74
2021/10/16 07:51:36;;;;;;;1.77;0.80;;;;;;;16.49;44.80;95140.09;5071706;28;20028;-75
2021/10/16 07:54:01;;;;;;;1.27;0.70;;;;;;;16.50;45.00;95149.06;5070834;28;20032;-74
2021/10/16 07:56:26;;;;;;;1.73;0.90;;;;;;;16.51;44.79;95154.25;5054532;28;20031;-75
2021/10/16 07:58:52;;;;;;;2.22;0.80;;;;;;;16.51;45.09;95146.13;5054107;28;20024;-74
2021/10/16 08:01:17;;;;;;;1.55;0.80;;;;;;;16.52;44.85;95155.09;5089400;28;20028;-73
2021/10/16 08:03:43;;;;;;;1.52;0.60;;;;;;;16.52;44.94;95149.69;5087828;28;20024;-73
2021/10/16 08:06:08;;;;;;;1.50;0.80;;;;;;;16.51;44.67;95151.56;5087694;28;20032;-73
2021/10/16 08:08:34;;;;;;;1.67;0.85;;;;;;;16.52;45.12;95150.50;5088262;28;20097;-74
2021/10/16 08:10:59;;;;;;;1.80;0.80;;;;;;;16.52;44.99;95161.31;5053825;28;20556;-72
2021/10/16 08:13:26;;;;;;;2.83;0.73;;;;;;;16.53;45.20;95164.88;5070970;28;20031;-73
2021/10/16 08:15:52;;;;;;;1.75;0.73;;;;;;;16.53;44.96;95165.69;5087355;28;20077;-72
2021/10/16 08:18:18;;;;;;;2.03;0.73;;;;;;;16.53;44.83;95167.56;5088184;28;20024;-73
2021/10/16 08:20:43;;;;;;;1.77;0.90;;;;;;;16.55;44.93;95165.47;5087342;28;20032;-73
2021/10/16 08:23:09;;;;;;;1.75;1.00;;;;;;;16.56;45.05;95169.84;5087405;28;20117;-72
2021/10/16 08:25:34;;;;;;;1.50;0.80;;;;;;;16.56;45.12;95167.97;5087757;28;20031;-72
2021/10/16 08:28:06;;;;;;;1.63;0.80;;;;;;;16.55;44.86;95168.19;5053520;28;20024;-72
2021/10/16 08:30:31;;;;;;;1.83;0.90;;;;;;;16.56;44.95;95173.38;5087672;28;20024;-73
2021/10/16 08:32:57;;;;;;;1.77;0.80;;;;;;;16.57;45.04;95179.63;5088189;28;20652;-73
2021/10/16 08:35:22;;;;;;;2.42;0.80;;;;;;;16.56;45.04;95173.38;5087646;28;20438;-73
2021/10/16 08:37:48;;;;;;;1.77;0.90;;;;;;;16.58;45.07;95177.72;5088275;28;20043;-72
2021/10/16 08:40:13;;;;;;;2.33;0.95;;;;;;;16.59;44.93;95184.81;5087442;28;20031;-74
2021/10/16 08:42:39;;;;;;;2.58;0.90;;;;;;;16.59;44.95;95182.94;5070240;28;20043;-73
2021/10/16 08:45:05;;;;;;;1.77;0.70;;;;;;;16.60;44.96;95179.19;5070075;28;20149;-74
2021/10/16 08:47:35;;;;;;;2.22;0.90;;;;;;;16.60;45.06;95179.19;5070970;28;20074;-73
2021/10/16 08:50:01;;;;;;;1.85;0.95;;;;;;;16.61;45.16;95169.16;5087911;28;20471;-71
2021/10/16 08:52:26;;;;;;;2.45;0.80;;;;;;;16.62;45.12;95166.25;5071082;28;20035;-74
2021/10/16 08:54:52;;;;;;;2.67;1.05;;;;;;;16.62;45.05;95174.34;5086294;28;20416;-74
2021/10/16 08:57:17;;;;;;;2.35;0.90;;;;;;;16.63;45.09;95170.63;5087257;28;20028;-72
2021/10/16 08:59:43;;;;;;;3.28;0.98;;;;;;;16.62;44.97;95174.34;5070027;28;20287;-73
2021/10/16 09:02:09;;;;;;;1.52;0.80;;;;;;;16.62;45.14;95177.06;5086790;28;20552;-72
2021/10/16 09:04:35;;;;;;;2.00;1.00;;;;;;;16.63;45.25;95177.91;5087327;28;20483;-72
2021/10/16 09:07:01;;;;;;;1.95;1.00;;;;;;;16.62;45.26;95176.25;5069495;28;20104;-73
2021/10/16 09:09:30;;;;;;;2.83;0.90;;;;;;;16.63;45.17;95184.16;5070652;28;20111;-73
2021/10/16 09:11:56;;;;;;;2.50;1.00;;;;;;;16.63;45.18;95178.75;5069196;28;20024;-73
2021/10/16 09:14:26;;;;;;;1.67;0.80;;;;;;;16.63;45.09;95178.75;5069929;28;20039;-72
2021/10/16 09:16:55;;;;;;;2.15;0.80;;;;;;;16.64;44.99;95185.81;5069741;28;20032;-72
2021/10/16 09:19:31;;;;;;;1.80;0.85;;;;;;;16.64;45.31;95183.09;5069691;28;20028;-72
2021/10/16 09:21:58;;;;;;;1.83;0.95;;;;;;;16.66;45.11;95183.72;5070766;28;20126;-73
2021/10/16 09:24:27;;;;;;;2.33;1.05;;;;;;;16.66;44.96;95186.41;5069507;28;20034;-72
2021/10/16 09:26:57;;;;;;;4.03;1.00;;;;;;;16.67;45.19;95185.38;5088469;28;20024;-73
2021/10/16 09:29:23;;;;;;;2.20;1.13;;;;;;;16.67;45.17;95188.06;5069659;28;20023;-72
2021/10/16 09:31:53;;;;;;;1.92;0.85;;;;;;;16.69;45.16;95190.56;5052714;28;20387;-72
2021/10/16 09:34:29;;;;;;;1.38;0.80;;;;;;;16.70;45.24;95194.09;5085968;28;20119;-72
2021/10/16 09:37:17;;;;;;;2.72;1.02;;;;;;;16.70;45.23;95191.41;5085847;28;20475;-72
2021/10/16 09:39:48;;;;;;;1.35;0.70;;;;;;;16.68;45.12;95195.13;5086702;28;20505;-72
2021/10/16 09:42:18;;;;;;;1.80;0.97;;;;;;;16.70;45.23;95203.06;5085838;28;20085;-72
2021/10/16 09:44:47;;;;;;;1.83;0.85;;;;;;;16.70;45.25;95192.22;5086304;28;20035;-73
2021/10/16 09:47:18;;;;;;;2.05;0.93;;;;;;;16.72;45.07;95200.94;5069063;28;20032;-73
2021/10/16 09:49:46;;;;;;;1.70;0.80;;;;;;;16.72;45.41;95200.13;5085885;28;20452;-73
2021/10/16 09:52:16;;;;;;;1.73;0.90;;;;;;;16.71;45.44;95191.16;5085498;28;20085;-72
2021/10/16 09:54:42;;;;;;;1.80;0.98;;;;;;;16.74;45.24;95206.13;5085418;28;20454;-73
2021/10/16 09:57:09;;;;;;;2.13;0.80;;;;;;;16.73;45.08;95197.19;5086133;28;20016;-72
2021/10/16 09:59:37;;;;;;;1.88;0.80;;;;;;;16.73;45.35;95204.47;5086805;28;20021;-73
2021/10/16 10:02:02;;;;;;;1.95;0.90;;;;;;;16.73;45.17;95199.06;5085730;28;20536;-72
2021/10/16 10:04:30;;;;;;;1.80;1.10;;;;;;;16.73;45.10;95201.78;5068746;28;20020;-73
2021/10/16 10:06:59;;;;;;;2.92;1.73;;;;;;;16.74;45.13;95206.97;5085558;28;20542;-73
2021/10/16 10:09:24;;;;;;;3.33;2.47;;;;;;;16.73;45.32;95204.47;5053521;28;20028;-73
2021/10/16 10:11:53;;;;;;;4.30;3.60;;;;;;;16.74;45.21;95206.97;5068467;28;20413;-72
2021/10/16 10:14:19;;;;;;;4.50;4.10;;;;;;;16.76;45.11;95201.34;5068775;28;20567;-73
2021/10/16 10:16:48;;;;;;;5.80;5.13;;;;;;;16.75;45.19;95196.97;5085122;28;20032;-73
2021/10/16 10:19:14;;;;;;;6.53;5.93;;;;;;;16.76;45.24;95198.63;5085515;28;20063;-73
2021/10/16 10:21:39;;;;;;;7.38;6.68;;;;;;;16.78;45.29;95207.38;5068159;28;20067;-73
2021/10/16 10:24:06;;;;;;;8.93;8.02;;;;;;;16.80;45.37;95216.91;5051842;28;20020;-73
2021/10/16 10:26:39;;;;;;;10.38;9.48;;;;;;;16.86;45.26;95209.75;5068887;28;20024;-74
2021/10/16 10:29:13;;;;;;;12.25;11.15;;;;;;;16.93;45.20;95215.13;5084819;28;20036;-73
2021/10/16 10:31:44;;;;;;;13.65;12.35;;;;;;;16.96;45.19;95211.16;5085723;28;20063;-73
2021/10/16 10:34:13;;;;;;;15.65;14.25;;;;;;;16.97;45.08;95212.81;5085857;28;20110;-73
2021/10/16 10:36:46;;;;;;;17.77;16.17;;;;;;;16.95;45.02;95206.78;5068703;28;20508;-73
2021/10/16 10:39:35;;;;;;;;;;;;;;;16.97;45.23;95212.81;5069171;28;20028;-73
2021/10/16 10:42:13;;;;;;;20.42;18.45;;;;;;;16.93;45.37;95220.53;5069394;28;19916;-73
2021/10/16 10:44:45;;;;;;;21.48;19.58;;;;;;;16.92;45.13;95225.16;5085404;28;20129;-73
2021/10/16 10:47:19;;;;;;;22.83;20.83;;;;;;;16.91;45.26;95223.47;5084601;28;20073;-73
2021/10/16 10:49:45;;;;;;;22.98;20.88;;;;;;;16.88;45.34;95215.78;5086446;28;20406;-73
2021/10/16 10:52:10;;;;;;;22.95;20.83;;;;;;;16.89;45.40;95222.91;5067668;28;20475;-73
2021/10/16 10:54:37;;;;;;;22.75;20.65;;;;;;;16.88;45.45;95223.13;5067817;28;20035;-73
2021/10/16 10:57:03;;;;;;;23.00;21.00;;;;;;;16.88;45.21;95225.81;5085475;28;20031;-74
2021/10/16 10:59:28;;;;;;;23.38;21.17;;;;;;;16.88;45.31;95218.50;5084241;28;20024;-74
2021/10/16 11:01:57;;;;;;;21.98;19.98;;;;;;;16.86;45.48;95211.66;5085348;28;20484;-73
2021/10/16 11:04:40;;;;;;;23.00;20.80;;;;;;;16.85;45.34;95218.13;5053472;28;20032;-74
2021/10/16 11:07:09;;;;;;;22.73;20.65;;;;;;;16.83;45.42;95221.03;5072508;28;20515;-74
2021/10/16 11:09:35;;;;;;;23.90;21.58;;;;;;;16.82;45.42;95213.97;5089152;28;20054;-74
2021/10/16 11:12:00;;;;;;;22.38;20.40;;;;;;;16.81;45.42;95218.56;5089929;28;20028;-71
2021/10/16 11:14:33;;;;;;;21.63;19.63;;;;;;;16.80;45.46;95219.63;5089220;28;20039;-71
2021/10/16 11:17:01;;;;;;;22.52;20.33;;;;;;;16.77;45.44;95221.94;5089803;28;20032;-73
2021/10/16 11:19:26;;;;;;;21.67;19.67;;;;;;;16.76;45.61;95223.00;5072696;28;20115;-72
2021/10/16 11:21:56;;;;;;;21.48;19.45;;;;;;;16.75;45.46;95218.63;5071232;28;20160;-72
2021/10/16 11:24:21;;;;;;;21.23;19.33;;;;;;;16.74;45.40;95217.81;5088781;28;20036;-72
2021/10/16 11:26:57;;;;;;;20.48;18.58;;;;;;;16.73;45.71;95228.84;5088690;28;20050;-72